Time;durP1;ratioP1;P1;durP2;ratioP2;P2;SDS_P1;SDS_P2;PMS_P1;PMS_P2;Temp;Humidity;BMP_temperature;BMP_pressure;BME280_temperature;BME280_humidity;BME280_pressure;Samples;Min_cycle;Max_cycle;Signal;HPM_P1;HPM_P2
2023/10/07 00:01:31;;;;;;;5.03;4.47;;;14.30;36.10;;;;;;10431859;28;20310;-77
2023/10/07 00:06:38;;;;;;;7.30;5.10;;;14.40;36.10;;;;;;10428557;28;20230;-77
2023/10/07 00:11:46;;;;;;;6.13;4.83;;;14.30;36.10;;;;;;10426282;28;20220;-77
2023/10/07 00:16:51;;;;;;;5.50;4.97;;;14.30;36.00;;;;;;10432379;28;20256;-77
2023/10/07 00:21:59;;;;;;;6.27;4.97;;;14.20;36.10;;;;;;10429641;28;20746;-77
2023/10/07 00:27:02;;;;;;;6.77;5.33;;;14.10;36.50;;;;;;10429597;28;20239;-76
2023/10/07 00:32:05;;;;;;;5.57;4.43;;;14.00;36.10;;;;;;10427003;28;20264;-74
2023/10/07 00:37:10;;;;;;;6.43;4.63;;;14.00;36.10;;;;;;10425583;28;20225;-74
2023/10/07 00:42:15;;;;;;;5.77;4.87;;;14.00;36.40;;;;;;10426766;28;20236;-74
2023/10/07 00:47:19;;;;;;;6.27;4.90;;;14.00;36.00;;;;;;10434086;28;20220;-74
2023/10/07 00:52:33;;;;;;;6.07;4.53;;;13.90;35.90;;;;;;10425622;28;20229;-74
2023/10/07 00:57:37;;;;;;;4.73;4.23;;;13.80;36.20;;;;;;10424079;28;20237;-73
2023/10/07 01:02:45;;;;;;;5.83;4.87;;;13.70;36.10;;;;;;10424671;28;20229;-73
2023/10/07 01:07:53;;;;;;;6.53;4.03;;;13.70;36.20;;;;;;10421263;28;20233;-73
2023/10/07 01:13:00;;;;;;;5.13;4.30;;;13.70;36.40;;;;;;10428645;28;20295;-73
2023/10/07 01:18:05;;;;;;;4.67;4.20;;;13.70;36.20;;;;;;10425550;28;20595;-74
2023/10/07 01:23:17;;;;;;;8.20;4.93;;;13.70;36.20;;;;;;10430370;28;20662;-74
2023/10/07 01:28:21;;;;;;;7.10;6.40;;;13.70;36.30;;;;;;10425065;28;20284;-77
2023/10/07 01:33:35;;;;;;;6.50;5.83;;;13.60;36.10;;;;;;10429110;28;20223;-77
2023/10/07 01:38:44;;;;;;;6.07;5.30;;;13.60;36.00;;;;;;10424133;28;20230;-77
2023/10/07 01:43:56;;;;;;;5.30;4.80;;;13.40;36.30;;;;;;10420631;28;20244;-77
2023/10/07 01:49:04;;;;;;;5.37;4.87;;;13.30;36.00;;;;;;10422186;28;20248;-77
2023/10/07 01:54:09;;;;;;;5.50;5.00;;;13.10;36.10;;;;;;10426422;28;20699;-76
2023/10/07 01:59:18;;;;;;;5.53;4.50;;;12.90;36.20;;;;;;10423145;28;20256;-77
2023/10/07 02:04:26;;;;;;;5.70;4.50;;;12.80;36.30;;;;;;10433634;28;20239;-76
2023/10/07 02:09:40;;;;;;;6.33;4.33;;;12.70;36.60;;;;;;10433410;28;20226;-77
2023/10/07 02:14:43;;;;;;;5.90;4.73;;;12.60;36.90;;;;;;10426901;28;20768;-76
2023/10/07 02:19:48;;;;;;;5.67;4.47;;;12.60;36.80;;;;;;10426958;28;20567;-77
2023/10/07 02:25:03;;;;;;;6.90;5.17;;;12.60;37.00;;;;;;10436327;28;20250;-77
2023/10/07 02:30:16;;;;;;;6.83;4.60;;;12.50;37.30;;;;;;10432427;28;20230;-77
2023/10/07 02:35:20;;;;;;;6.00;5.20;;;12.50;37.20;;;;;;10436189;28;20239;-77
2023/10/07 02:40:35;;;;;;;6.00;4.97;;;12.40;37.00;;;;;;10434203;28;20233;-78
2023/10/07 02:45:42;;;;;;;7.60;4.90;;;12.50;37.50;;;;;;10428110;28;20220;-78
2023/10/07 02:50:51;;;;;;;5.47;4.43;;;12.50;37.20;;;;;;10438447;28;20686;-78
2023/10/07 02:55:58;;;;;;;5.43;4.50;;;12.40;37.40;;;;;;10434363;28;20295;-77
2023/10/07 03:01:13;;;;;;;6.30;4.47;;;12.40;37.60;;;;;;10430000;28;20700;-75
2023/10/07 03:06:17;;;;;;;5.83;4.37;;;12.30;37.20;;;;;;10431211;28;20747;-78
2023/10/07 03:11:22;;;;;;;7.40;4.83;;;12.30;36.90;;;;;;10427973;28;20224;-78
2023/10/07 03:16:28;;;;;;;6.00;4.80;;;12.30;37.10;;;;;;10436025;28;20235;-78
2023/10/07 03:21:54;;;;;;;5.27;4.30;;;12.20;37.00;;;;;;10430690;28;23033;-78
2023/10/07 03:27:05;;;;;;;5.10;4.00;;;12.10;37.10;;;;;;10432778;28;20226;-78
2023/10/07 03:32:12;;;;;;;6.70;4.50;;;12.10;37.10;;;;;;10432154;28;20227;-77
2023/10/07 03:37:16;;;;;;;6.20;4.43;;;12.10;37.00;;;;;;10434103;28;20272;-77
2023/10/07 03:42:21;;;;;;;5.03;4.40;;;12.00;36.90;;;;;;10432081;28;20239;-78
2023/10/07 03:47:25;;;;;;;5.07;4.37;;;12.00;37.30;;;;;;10426631;28;20228;-77
2023/10/07 03:52:29;;;;;;;7.87;4.70;;;12.00;37.00;;;;;;10431103;28;20315;-78
2023/10/07 03:57:33;;;;;;;7.60;4.83;;;11.90;37.00;;;;;;10431199;28;20225;-78
2023/10/07 04:02:41;;;;;;;5.53;4.80;;;11.70;37.20;;;;;;10428748;28;20746;-78
2023/10/07 04:07:45;;;;;;;5.90;4.80;;;11.60;37.20;;;;;;10429417;28;20257;-78
2023/10/07 04:12:56;;;;;;;5.40;4.70;;;11.40;37.30;;;;;;10429177;28;20746;-78
2023/10/07 04:18:00;;;;;;;5.90;4.73;;;11.30;38.10;;;;;;10434385;28;20247;-78
2023/10/07 04:23:04;;;;;;;5.77;4.90;;;11.10;37.90;;;;;;10428017;28;20630;-77
2023/10/07 04:28:13;;;;;;;5.20;4.63;;;11.00;38.30;;;;;;10426574;28;20311;-77
2023/10/07 04:33:25;;;;;;;5.93;5.30;;;11.00;38.90;;;;;;10430308;28;20647;-78
2023/10/07 04:38:52;;;;;;;5.87;5.13;;;10.90;38.50;;;;;;10431917;28;20236;-78
2023/10/07 04:44:00;;;;;;;8.13;5.50;;;10.90;38.60;;;;;;10434874;28;20246;-78
2023/10/07 04:49:15;;;;;;;5.80;5.20;;;10.90;39.10;;;;;;10432610;28;20752;-78
2023/10/07 04:54:21;;;;;;;5.80;4.70;;;10.90;38.80;;;;;;10430501;28;20235;-78
2023/10/07 04:59:26;;;;;;;5.77;5.17;;;10.90;38.90;;;;;;10428888;28;20279;-78
2023/10/07 05:04:29;;;;;;;5.07;4.50;;;10.90;39.30;;;;;;10427835;28;20225;-78
2023/10/07 05:09:32;;;;;;;6.87;4.40;;;11.00;39.00;;;;;;10431388;28;20217;-78
2023/10/07 05:14:37;;;;;;;5.53;4.90;;;11.10;38.80;;;;;;10429165;28;20225;-78
2023/10/07 05:19:40;;;;;;;5.63;5.00;;;11.20;39.00;;;;;;10428932;28;20231;-78
2023/10/07 05:24:46;;;;;;;5.87;5.17;;;11.20;39.30;;;;;;10417729;28;20236;-78
2023/10/07 05:29:51;;;;;;;6.67;5.23;;;11.30;38.60;;;;;;10430177;28;20240;-78
2023/10/07 05:34:57;;;;;;;7.70;5.80;;;11.30;38.70;;;;;;10428265;28;20233;-79
2023/10/07 05:40:03;;;;;;;4.93;4.47;;;11.30;38.30;;;;;;10427373;28;20770;-78
2023/10/07 05:45:10;;;;;;;6.53;5.40;;;11.40;38.30;;;;;;10438817;28;20220;-78
2023/10/07 05:50:13;;;;;;;6.23;5.63;;;11.40;38.70;;;;;;10442803;28;20464;-78
2023/10/07 05:55:17;;;;;;;5.80;5.10;;;11.20;38.00;;;;;;10440330;28;20232;-78
2023/10/07 06:00:24;;;;;;;6.23;5.63;;;11.10;38.10;;;;;;10439083;28;20235;-78
2023/10/07 06:05:29;;;;;;;7.20;6.20;;;11.00;38.70;;;;;;10434630;28;20235;-78
2023/10/07 06:10:33;;;;;;;6.43;5.33;;;11.00;38.70;;;;;;10430126;28;20749;-79
2023/10/07 06:15:39;;;;;;;7.70;6.67;;;11.10;39.00;;;;;;10437099;28;20700;-79
2023/10/07 06:20:46;;;;;;;7.73;7.03;;;11.10;39.50;;;;;;10428341;28;20221;-75
2023/10/07 06:25:51;;;;;;;10.17;7.40;;;11.20;39.40;;;;;;10429252;28;20778;-75
2023/10/07 06:31:10;;;;;;;7.43;6.73;;;11.30;39.90;;;;;;10430330;28;20317;-77
2023/10/07 06:36:14;;;;;;;7.70;7.00;;;11.30;41.40;;;;;;10431118;28;20228;-75
2023/10/07 06:41:18;;;;;;;9.53;8.03;;;11.40;40.70;;;;;;10426826;28;20776;-75
2023/10/07 06:46:23;;;;;;;10.13;8.13;;;11.50;41.30;;;;;;10432607;28;21739;-75
2023/10/07 06:51:28;;;;;;;9.93;8.90;;;11.70;42.20;;;;;;10430053;28;20556;-74
2023/10/07 06:56:33;;;;;;;10.13;8.93;;;11.90;41.90;;;;;;10429437;28;20308;-74
2023/10/07 07:01:54;;;;;;;9.60;8.30;;;12.10;42.30;;;;;;10429742;28;20225;-73
2023/10/07 07:07:10;;;;;;;10.93;9.23;;;12.30;43.20;;;;;;10432817;28;20696;-73
2023/10/07 07:12:17;;;;;;;10.63;8.73;;;12.60;42.80;;;;;;10434996;28;20209;-78
2023/10/07 07:17:35;;;;;;;9.63;8.60;;;12.80;43.70;;;;;;10433873;28;20339;-78
2023/10/07 07:22:42;;;;;;;12.07;10.87;;;13.10;43.90;;;;;;10435034;28;20311;-73
2023/10/07 07:27:48;;;;;;;12.07;10.40;;;13.30;43.80;;;;;;10427014;28;20230;-75
2023/10/07 07:32:55;;;;;;;11.03;9.50;;;13.60;43.60;;;;;;10427789;28;20229;-74
2023/10/07 07:38:02;;;;;;;11.93;10.40;;;13.90;44.60;;;;;;10431167;28;20264;-73
2023/10/07 07:43:07;;;;;;;12.10;10.90;;;14.30;43.90;;;;;;10429632;28;20627;-74
2023/10/07 07:48:12;;;;;;;12.93;11.00;;;14.60;44.10;;;;;;10431661;28;20229;-77
2023/10/07 07:53:15;;;;;;;11.20;10.17;;;15.00;44.90;;;;;;10431827;28;20965;-78
2023/10/07 07:58:18;;;;;;;11.40;10.30;;;15.40;44.70;;;;;;10435808;28;20278;-77
2023/10/07 08:03:23;;;;;;;10.67;9.57;;;15.80;44.80;;;;;;10426004;28;20237;-73
2023/10/07 08:08:29;;;;;;;9.87;8.87;;;16.10;45.00;;;;;;10418950;28;20252;-77
2023/10/07 08:13:32;;;;;;;10.30;9.03;;;16.50;44.10;;;;;;10427571;28;20308;-78
2023/10/07 08:18:37;;;;;;;10.93;9.57;;;16.90;44.00;;;;;;10423134;28;20320;-78
2023/10/07 08:23:44;;;;;;;7.27;6.17;;;17.20;43.90;;;;;;10427668;28;20225;-78
2023/10/07 08:28:59;;;;;;;7.23;6.23;;;17.50;42.20;;;;;;10423611;28;20229;-78
2023/10/07 08:34:09;;;;;;;7.40;5.37;;;17.90;42.10;;;;;;10420175;28;20231;-77
2023/10/07 08:39:17;;;;;;;7.00;5.33;;;18.30;40.90;;;;;;10422296;28;20232;-77
2023/10/07 08:44:29;;;;;;;12.83;11.27;;;18.60;40.40;;;;;;10426917;28;20231;-73
2023/10/07 08:49:36;;;;;;;6.87;6.17;;;18.90;40.80;;;;;;10427055;28;20221;-72
2023/10/07 08:54:44;;;;;;;5.87;5.27;;;19.20;38.70;;;;;;10425319;28;20229;-73
2023/10/07 08:59:52;;;;;;;5.87;4.90;;;19.50;39.20;;;;;;10426084;28;20224;-76
2023/10/07 09:04:58;;;;;;;6.87;5.20;;;19.70;38.40;;;;;;10425890;28;20974;-76
2023/10/07 09:10:10;;;;;;;7.17;5.33;;;20.00;37.20;;;;;;10420929;28;20232;-77
2023/10/07 09:15:21;;;;;;;5.23;4.73;;;20.20;36.80;;;;;;10424819;28;20243;-78
2023/10/07 09:20:31;;;;;;;5.87;4.80;;;20.40;36.30;;;;;;10426174;28;20258;-78
2023/10/07 09:25:34;;;;;;;5.50;4.53;;;20.50;36.30;;;;;;10422926;28;20304;-78
2023/10/07 09:30:38;;;;;;;5.43;4.47;;;20.70;36.40;;;;;;10423491;28;20233;-78
2023/10/07 09:35:43;;;;;;;5.27;4.77;;;20.80;35.80;;;;;;10420034;28;20229;-78
2023/10/07 09:46:08;;;;;;;6.17;4.17;;;21.00;35.50;;;;;;10422517;28;20229;-78
2023/10/07 09:51:22;;;;;;;5.43;3.90;;;21.10;35.60;;;;;;10428450;28;20233;-78
2023/10/07 09:56:38;;;;;;;5.17;3.57;;;21.30;34.60;;;;;;10427339;28;20307;-78
2023/10/07 10:01:58;;;;;;;4.90;3.47;;;21.40;32.90;;;;;;10428602;28;20340;-78
2023/10/07 10:07:32;;;;;;;5.33;3.50;;;21.50;31.70;;;;;;10421534;28;20218;-77
2023/10/07 10:12:53;;;;;;;5.07;3.40;;;21.70;29.50;;;;;;10430856;28;20225;-78
2023/10/07 10:17:59;;;;;;;3.67;3.33;;;21.90;30.00;;;;;;10428267;28;20232;-77
2023/10/07 10:23:08;;;;;;;2.97;2.67;;;22.10;32.10;;;;;;10423107;28;20231;-78
2023/10/07 10:28:21;;;;;;;5.57;3.43;;;22.30;30.80;;;;;;10426245;28;20719;-78
2023/10/07 10:33:28;;;;;;;3.97;3.37;;;22.30;29.80;;;;;;10436281;28;20728;-77
2023/10/07 10:38:40;;;;;;;3.30;2.80;;;22.30;30.70;;;;;;10434822;28;20319;-78
2023/10/07 10:43:44;;;;;;;4.13;2.93;;;22.30;28.70;;;;;;10437506;28;20228;-77
2023/10/07 10:48:47;;;;;;;3.37;2.93;;;22.30;30.50;;;;;;10433113;28;20314;-77
2023/10/07 10:53:52;;;;;;;4.27;3.03;;;22.30;29.80;;;;;;10432329;28;20811;-80
2023/10/07 10:58:57;;;;;;;3.53;2.80;;;22.30;28.50;;;;;;10431428;28;20235;-80
2023/10/07 11:04:04;;;;;;;3.40;2.97;;;22.20;28.80;;;;;;10428767;28;20225;-80
2023/10/07 11:09:09;;;;;;;3.40;2.70;;;22.10;29.00;;;;;;10433417;28;20228;-79
2023/10/07 11:14:13;;;;;;;4.67;3.00;;;22.10;27.80;;;;;;10431912;28;20228;-80
2023/10/07 11:19:18;;;;;;;4.07;3.30;;;22.00;28.60;;;;;;10428607;28;20244;-80
2023/10/07 11:24:27;;;;;;;4.87;2.90;;;21.90;28.30;;;;;;10433410;28;20479;-80
2023/10/07 11:29:31;;;;;;;3.70;3.17;;;21.80;26.50;;;;;;10435599;28;20243;-80
2023/10/07 11:34:39;;;;;;;3.73;3.10;;;21.70;28.10;;;;;;10427021;28;20221;-80
2023/10/07 11:39:48;;;;;;;3.53;3.20;;;21.70;28.70;;;;;;10431788;28;20309;-77
2023/10/07 11:44:54;;;;;;;3.47;3.07;;;21.60;28.80;;;;;;10426775;28;20252;-77
2023/10/07 11:50:00;;;;;;;5.73;3.97;;;21.60;28.90;;;;;;10425883;28;20324;-77
2023/10/07 11:55:07;;;;;;;4.30;3.13;;;21.60;28.90;;;;;;10428139;28;20308;-79
2023/10/07 12:00:22;;;;;;;4.23;3.10;;;21.60;28.70;;;;;;10433270;28;20232;-79
2023/10/07 12:05:27;;;;;;;6.23;3.37;;;21.60;29.10;;;;;;10424952;28;20224;-79
2023/10/07 12:10:36;;;;;;;4.57;3.80;;;21.60;28.70;;;;;;10431725;28;20229;-79
2023/10/07 12:15:41;;;;;;;4.80;3.20;;;21.50;28.30;;;;;;10426655;28;20694;-79
2023/10/07 12:21:11;;;;;;;3.40;3.00;;;21.50;28.70;;;;;;10424160;28;20257;-79
2023/10/07 12:26:18;;;;;;;4.30;3.10;;;21.40;28.90;;;;;;10431690;28;20221;-79
2023/10/07 12:31:23;;;;;;;4.03;3.30;;;21.30;28.70;;;;;;10430771;28;20229;-77
2023/10/07 12:36:26;;;;;;;6.83;3.57;;;21.30;29.00;;;;;;10430062;28;20227;-78
2023/10/07 12:41:31;;;;;;;4.00;2.57;;;21.30;28.80;;;;;;10431780;28;20283;-78
2023/10/07 12:46:34;;;;;;;3.33;3.03;;;21.30;28.90;;;;;;10431530;28;20241;-77
2023/10/07 12:51:38;;;;;;;3.80;3.07;;;21.30;28.80;;;;;;10432534;28;20596;-77
2023/10/07 12:56:46;;;;;;;5.00;3.13;;;21.40;28.50;;;;;;10430191;28;20324;-77
2023/10/07 13:01:51;;;;;;;3.33;2.70;;;21.40;28.10;;;;;;10426291;28;20225;-77
2023/10/07 13:07:00;;;;;;;4.47;3.23;;;21.50;28.50;;;;;;10429739;28;20310;-77
2023/10/07 13:12:11;;;;;;;3.67;3.03;;;21.60;28.50;;;;;;10427202;28;20225;-77
2023/10/07 13:17:15;;;;;;;3.43;2.97;;;21.60;28.00;;;;;;10430929;28;20707;-79
2023/10/07 13:22:21;;;;;;;4.37;2.83;;;21.60;28.40;;;;;;10427030;28;20910;-80
2023/10/07 13:27:28;;;;;;;4.83;3.40;;;21.60;28.30;;;;;;10435036;28;20225;-80
2023/10/07 13:32:31;;;;;;;4.03;3.20;;;21.70;27.80;;;;;;10426464;28;20351;-80
2023/10/07 13:37:35;;;;;;;4.00;2.70;;;21.70;28.20;;;;;;10432429;28;20606;-79
2023/10/07 13:42:39;;;;;;;5.57;2.93;;;21.70;28.10;;;;;;10429192;28;20235;-79
2023/10/07 13:47:44;;;;;;;3.47;3.07;;;21.80;27.80;;;;;;10427603;28;20714;-79
2023/10/07 13:52:58;;;;;;;6.70;3.37;;;21.80;28.20;;;;;;10427253;28;20232;-79
2023/10/07 13:58:04;;;;;;;4.50;3.60;;;21.80;28.10;;;;;;10429008;28;20248;-78
2023/10/07 14:03:19;;;;;;;12.40;3.80;;;21.80;28.10;;;;;;10430274;28;20302;-80
2023/10/07 14:08:26;;;;;;;4.37;3.40;;;21.90;28.40;;;;;;10431827;28;20278;-80
2023/10/07 14:13:33;;;;;;;4.23;2.93;;;22.00;28.10;;;;;;10432885;28;20228;-77
2023/10/07 14:18:37;;;;;;;7.33;3.20;;;22.10;27.80;;;;;;10426060;28;20659;-77
2023/10/07 14:23:41;;;;;;;4.63;2.67;;;22.10;28.20;;;;;;10432788;28;20579;-79
2023/10/07 14:28:46;;;;;;;5.07;2.70;;;22.20;28.00;;;;;;10435813;28;20284;-79
2023/10/07 14:33:54;;;;;;;4.97;3.17;;;22.30;27.70;;;;;;10424331;28;20229;-79
2023/10/07 14:38:57;;;;;;;7.13;3.17;;;22.30;27.40;;;;;;10428583;28;20307;-79
2023/10/07 14:44:03;;;;;;;4.57;2.97;;;22.30;27.30;;;;;;10431866;28;20229;-79
2023/10/07 14:49:08;;;;;;;4.03;3.37;;;22.20;26.80;;;;;;10423664;28;20236;-78
2023/10/07 14:54:11;;;;;;;3.40;2.90;;;22.20;27.20;;;;;;10433681;28;20225;-77
2023/10/07 14:59:16;;;;;;;3.93;3.40;;;22.20;27.20;;;;;;10432555;28;20233;-77
2023/10/07 15:04:20;;;;;;;6.20;3.30;;;22.20;26.80;;;;;;10432580;28;20279;-75
2023/10/07 15:09:24;;;;;;;4.23;3.20;;;22.10;26.70;;;;;;10435501;28;20231;-75
2023/10/07 15:14:30;;;;;;;4.07;3.30;;;22.10;27.00;;;;;;10435168;28;20233;-77
2023/10/07 15:19:33;;;;;;;5.27;3.20;;;22.10;26.70;;;;;;10437100;28;20225;-77
2023/10/07 15:24:37;;;;;;;4.53;3.30;;;22.10;26.90;;;;;;10432531;28;20263;-77
2023/10/07 15:29:41;;;;;;;4.33;3.70;;;22.00;26.70;;;;;;10432261;28;20308;-77
2023/10/07 15:34:45;;;;;;;4.60;3.50;;;22.00;26.70;;;;;;10412123;28;20592;-78
2023/10/07 15:39:48;;;;;;;3.30;3.00;;;21.90;27.20;;;;;;10441318;28;20224;-75
2023/10/07 15:44:54;;;;;;;4.30;2.90;;;21.80;27.30;;;;;;10412780;28;20230;-75
2023/10/07 15:49:58;;;;;;;4.80;3.77;;;21.80;26.70;;;;;;10428088;28;20420;-75
2023/10/07 15:55:06;;;;;;;7.13;3.83;;;21.70;27.30;;;;;;10427444;28;20954;-77
2023/10/07 16:00:14;;;;;;;6.57;4.03;;;21.60;27.10;;;;;;10422683;28;20307;-76
2023/10/07 16:05:17;;;;;;;8.23;6.20;;;21.60;27.00;;;;;;10424479;28;20291;-78
2023/10/07 16:10:21;;;;;;;14.23;9.57;;;21.60;27.50;;;;;;10427725;28;20224;-78
2023/10/07 16:15:26;;;;;;;7.30;5.73;;;21.50;27.60;;;;;;10427544;28;20228;-78
2023/10/07 16:20:29;;;;;;;5.33;4.50;;;21.40;27.30;;;;;;10430801;28;20232;-78
2023/10/07 16:25:33;;;;;;;5.20;3.97;;;21.40;27.60;;;;;;10424524;28;20837;-76
2023/10/07 16:30:38;;;;;;;4.43;3.30;;;21.30;27.70;;;;;;10430174;28;20237;-75
2023/10/07 16:35:48;;;;;;;5.20;3.60;;;21.20;27.70;;;;;;10426247;28;20295;-75
2023/10/07 16:40:51;;;;;;;4.13;3.37;;;21.30;28.40;;;;;;10433809;28;20259;-75
2023/10/07 16:45:57;;;;;;;4.87;3.80;;;21.20;27.80;;;;;;10421258;28;20237;-75
2023/10/07 16:51:04;;;;;;;5.23;3.83;;;21.10;27.60;;;;;;10427536;28;20932;-78
2023/10/07 16:56:08;;;;;;;4.77;3.60;;;21.10;27.60;;;;;;10424602;28;20573;-76
2023/10/07 17:01:14;;;;;;;5.30;3.90;;;21.10;27.90;;;;;;10425345;28;20315;-79
2023/10/07 17:06:18;;;;;;;5.37;3.87;;;21.00;27.90;;;;;;10418979;28;20803;-78
2023/10/07 17:11:21;;;;;;;8.97;7.20;;;21.00;28.00;;;;;;10422395;28;20344;-78
2023/10/07 17:16:27;;;;;;;6.60;5.17;;;20.90;27.90;;;;;;10424096;28;20671;-76
2023/10/07 17:21:30;;;;;;;5.83;4.43;;;20.80;27.90;;;;;;10429123;28;20226;-78
2023/10/07 17:26:36;;;;;;;5.67;3.90;;;20.80;27.90;;;;;;10422233;28;20225;-76
2023/10/07 17:31:41;;;;;;;5.63;3.30;;;20.70;27.90;;;;;;10422965;28;20232;-76
2023/10/07 17:36:44;;;;;;;7.73;3.80;;;20.60;27.70;;;;;;10428980;28;20232;-76
2023/10/07 17:41:49;;;;;;;5.27;3.47;;;20.60;27.90;;;;;;10432455;28;20316;-76
2023/10/07 17:46:55;;;;;;;3.33;3.03;;;20.50;27.90;;;;;;10435138;28;20290;-79
2023/10/07 17:52:00;;;;;;;7.50;4.60;;;20.40;28.00;;;;;;10437026;28;20229;-78
2023/10/07 17:57:04;;;;;;;6.63;4.57;;;20.40;28.20;;;;;;10429663;28;20290;-79
2023/10/07 18:02:08;;;;;;;7.40;5.00;;;20.30;28.30;;;;;;10427358;28;20235;-79
2023/10/07 18:07:12;;;;;;;8.03;4.87;;;20.20;28.50;;;;;;10432517;28;20253;-80
2023/10/07 18:12:15;;;;;;;6.77;4.30;;;20.10;28.70;;;;;;10429851;28;20343;-79
2023/10/07 18:17:20;;;;;;;5.57;4.53;;;20.00;28.60;;;;;;10430298;28;21325;-79
2023/10/07 18:22:23;;;;;;;4.67;4.17;;;19.90;28.80;;;;;;10433938;28;20307;-76
2023/10/07 18:27:26;;;;;;;4.83;3.73;;;19.90;28.80;;;;;;10435202;28;20782;-76
2023/10/07 18:32:33;;;;;;;8.53;4.17;;;19.80;28.80;;;;;;10427244;28;20222;-80
2023/10/07 18:37:37;;;;;;;5.17;4.27;;;19.80;28.90;;;;;;10432291;28;20241;-79
2023/10/07 18:42:41;;;;;;;7.00;5.30;;;19.70;28.90;;;;;;10421154;28;21002;-80
2023/10/07 18:47:46;;;;;;;10.87;5.90;;;19.70;29.00;;;;;;10428977;28;20225;-80
2023/10/07 18:52:49;;;;;;;7.47;5.40;;;19.60;29.20;;;;;;10429459;28;20235;-80
2023/10/07 18:57:53;;;;;;;8.97;4.60;;;19.60;29.30;;;;;;10428721;28;20244;-79
2023/10/07 19:02:58;;;;;;;7.27;4.57;;;19.60;29.30;;;;;;10432737;28;20707;-79
2023/10/07 19:08:02;;;;;;;7.90;3.67;;;19.60;29.40;;;;;;10423769;28;20228;-79
2023/10/07 19:13:09;;;;;;;4.63;3.40;;;19.70;29.30;;;;;;10425445;28;20233;-80
2023/10/07 19:18:14;;;;;;;5.00;3.20;;;19.70;29.30;;;;;;10427303;28;20225;-77
2023/10/07 19:23:18;;;;;;;5.10;3.60;;;19.90;29.20;;;;;;10421854;28;20314;-75
2023/10/07 19:28:22;;;;;;;5.63;3.40;;;20.00;29.20;;;;;;10420279;28;20312;-76
2023/10/07 19:33:26;;;;;;;4.40;3.50;;;20.20;29.10;;;;;;10430321;28;20267;-76
2023/10/07 19:38:30;;;;;;;3.93;3.47;;;20.30;28.90;;;;;;10422008;28;20228;-76
2023/10/07 19:43:33;;;;;;;4.23;3.30;;;20.40;28.90;;;;;;10422226;28;20327;-74
2023/10/07 19:48:37;;;;;;;5.77;3.60;;;20.50;28.80;;;;;;10426378;28;20225;-75
2023/10/07 19:53:40;;;;;;;3.93;3.20;;;20.60;28.60;;;;;;10422391;28;20214;-75
2023/10/07 19:58:44;;;;;;;4.30;3.30;;;20.70;28.60;;;;;;10426127;28;20668;-75
2023/10/07 20:03:48;;;;;;;4.03;3.50;;;20.70;28.50;;;;;;10429316;28;20674;-75
2023/10/07 20:08:53;;;;;;;4.37;3.70;;;20.80;28.20;;;;;;10429857;28;20229;-75
2023/10/07 20:13:56;;;;;;;3.40;3.10;;;20.90;28.40;;;;;;10430309;28;20310;-74
2023/10/07 20:19:01;;;;;;;3.93;3.60;;;21.00;28.30;;;;;;10425783;28;20241;-74
2023/10/07 20:24:05;;;;;;;4.47;3.50;;;21.10;28.10;;;;;;10427525;28;20235;-78
2023/10/07 20:29:08;;;;;;;3.97;3.57;;;21.20;28.20;;;;;;10425027;28;20236;-78
2023/10/07 20:34:13;;;;;;;4.23;3.60;;;21.10;28.10;;;;;;10428290;28;20222;-78
2023/10/07 20:39:19;;;;;;;5.80;3.70;;;21.20;28.10;;;;;;10429220;28;20229;-78
2023/10/07 20:44:23;;;;;;;4.67;3.80;;;21.20;28.00;;;;;;10427163;28;20703;-78
2023/10/07 20:49:27;;;;;;;3.90;3.50;;;21.20;28.10;;;;;;10423233;28;20648;-78
2023/10/07 20:54:31;;;;;;;4.50;3.53;;;21.20;28.00;;;;;;10432872;28;20225;-78
2023/10/07 20:59:34;;;;;;;5.50;3.60;;;21.20;28.00;;;;;;10427371;28;20309;-80
2023/10/07 21:04:39;;;;;;;4.20;3.57;;;21.20;28.00;;;;;;10419630;28;20213;-78
2023/10/07 21:09:42;;;;;;;6.03;3.63;;;21.20;28.00;;;;;;10424444;28;20232;-78
2023/10/07 21:14:46;;;;;;;4.77;3.90;;;21.20;28.10;;;;;;10429270;28;20324;-75
2023/10/07 21:19:51;;;;;;;4.67;3.60;;;21.10;28.10;;;;;;10421088;28;20224;-75
2023/10/07 21:24:54;;;;;;;4.77;3.67;;;21.00;28.10;;;;;;10426248;28;20704;-75
2023/10/07 21:29:57;;;;;;;6.23;4.00;;;20.90;28.30;;;;;;10424323;28;20703;-75
2023/10/07 21:35:05;;;;;;;4.67;3.13;;;20.80;28.30;;;;;;10424981;28;20595;-75
2023/10/07 21:40:10;;;;;;;4.13;3.47;;;20.80;28.40;;;;;;10421970;28;20229;-75
2023/10/07 21:45:13;;;;;;;4.10;3.53;;;20.70;28.50;;;;;;10424788;28;20305;-78
2023/10/07 21:50:18;;;;;;;5.33;4.13;;;20.70;28.40;;;;;;10431911;28;20327;-78
2023/10/07 21:55:24;;;;;;;4.90;4.00;;;20.70;28.50;;;;;;10428266;28;20251;-78
2023/10/07 22:00:37;;;;;;;5.17;3.90;;;20.60;28.50;;;;;;10429324;28;20233;-78
2023/10/07 22:05:42;;;;;;;4.33;3.53;;;20.70;28.60;;;;;;10424953;28;20221;-78
2023/10/07 22:10:47;;;;;;;4.57;3.53;;;20.70;28.60;;;;;;10427992;28;20236;-79
2023/10/07 22:15:54;;;;;;;4.20;3.80;;;20.70;28.70;;;;;;10423349;28;20225;-79
2023/10/07 22:21:00;;;;;;;3.97;3.57;;;20.70;28.80;;;;;;10427254;28;20229;-79
2023/10/07 22:26:07;;;;;;;5.80;3.80;;;20.60;28.70;;;;;;10433765;28;20316;-79
2023/10/07 22:31:11;;;;;;;5.53;3.30;;;20.60;29.40;;;;;;10433642;28;20316;-79
2023/10/07 22:36:36;;;;;;;5.00;3.30;;;20.70;28.90;;;;;;10432985;28;20311;-78
2023/10/07 22:41:39;;;;;;;6.77;3.60;;;20.70;28.90;;;;;;10424893;28;20247;-78
2023/10/07 22:46:42;;;;;;;4.27;3.47;;;20.70;28.80;;;;;;10434004;28;20316;-79
2023/10/07 22:51:53;;;;;;;4.47;3.53;;;20.80;28.80;;;;;;10432545;28;20229;-79
2023/10/07 22:57:00;;;;;;;4.23;3.43;;;20.80;28.70;;;;;;10431060;28;20225;-78
2023/10/07 23:02:11;;;;;;;4.20;3.40;;;20.80;28.70;;;;;;10429406;28;20941;-78
2023/10/07 23:07:23;;;;;;;6.00;3.70;;;20.90;28.60;;;;;;10431726;28;20225;-78
2023/10/07 23:12:30;;;;;;;4.93;3.40;;;20.90;28.50;;;;;;10429498;28;20229;-78
2023/10/07 23:17:37;;;;;;;4.03;3.30;;;20.90;28.50;;;;;;10429947;28;20243;-78
2023/10/07 23:22:45;;;;;;;5.27;3.50;;;20.90;28.30;;;;;;10430154;28;20307;-79
2023/10/07 23:27:50;;;;;;;6.57;3.87;;;21.00;28.30;;;;;;10427671;28;20890;-78
2023/10/07 23:32:58;;;;;;;4.70;3.40;;;21.00;28.20;;;;;;10432831;28;20279;-78
2023/10/07 23:38:08;;;;;;;5.43;3.23;;;21.00;28.00;;;;;;10424528;28;20245;-78
2023/10/07 23:43:14;;;;;;;6.53;3.27;;;21.10;28.00;;;;;;10427667;28;20233;-78
2023/10/07 23:48:18;;;;;;;4.57;3.27;;;21.10;28.00;;;;;;10427000;28;20597;-79
2023/10/07 23:53:31;;;;;;;3.87;3.03;;;21.10;27.90;;;;;;10428430;28;20225;-79
2023/10/07 23:58:42;;;;;;;5.03;3.10;;;21.20;27.80;;;;;;10428013;28;20237;-79
